Time;durP1;ratioP1;P1;durP2;ratioP2;P2;SDS_P1;SDS_P2;PMS_P1;PMS_P2;Temp;Humidity;BMP_temperature;BMP_pressure;BME280_temperature;BME280_humidity;BME280_pressure;Samples;Min_cycle;Max_cycle;Signal;HPM_P1;HPM_P2
2023/12/02 00:00:11;;;;;;;59.40;26.20;;;;;;;-5.25;83.74;100446.38;4913657;29;20561;-77
2023/12/02 00:02:38;;;;;;;63.72;27.77;;;;;;;-5.00;82.43;100439.50;4912028;29;20056;-77
2023/12/02 00:05:05;;;;;;;67.05;27.73;;;;;;;-4.99;82.58;100446.50;4914091;29;20085;-78
2023/12/02 00:07:32;;;;;;;60.65;26.55;;;;;;;-5.04;82.25;100449.28;4911905;29;20056;-78
2023/12/02 00:09:59;;;;;;;60.17;27.02;;;;;;;-5.07;82.54;100441.44;4912795;29;20488;-77
2023/12/02 00:12:26;;;;;;;61.92;27.17;;;;;;;-5.34;83.40;100437.78;4927821;29;20052;-76
2023/12/02 00:14:52;;;;;;;67.88;28.25;;;;;;;-5.05;83.03;100433.47;4913824;29;20044;-74
2023/12/02 00:17:19;;;;;;;66.78;28.50;;;;;;;-5.27;83.17;100438.50;4928591;29;20044;-77
2023/12/02 00:19:46;;;;;;;63.00;27.48;;;;;;;-5.10;83.27;100432.72;4910746;29;20059;-77
2023/12/02 00:22:13;;;;;;;73.00;29.25;;;;;;;-5.05;82.61;100434.31;4922246;29;20063;-78
2023/12/02 00:24:41;;;;;;;74.47;30.40;;;;;;;-4.78;81.94;100429.13;4917420;29;20055;-78
2023/12/02 00:27:07;;;;;;;68.10;29.00;;;;;;;-4.86;81.99;100429.34;4916959;29;20582;-76
2023/12/02 00:29:34;;;;;;;67.13;28.25;;;;;;;-5.10;82.32;100428.28;4917015;29;20508;-77
2023/12/02 00:32:01;;;;;;;77.72;30.67;;;;;;;-5.06;83.31;100434.38;4917768;29;20048;-76
2023/12/02 00:34:27;;;;;;;68.47;29.17;;;;;;;-5.15;83.24;100424.94;4917201;29;20070;-76
2023/12/02 00:36:54;;;;;;;66.07;29.42;;;;;;;-5.26;83.47;100419.09;4917457;29;20050;-76
2023/12/02 00:39:20;;;;;;;79.30;29.55;;;;;;;-5.28;84.01;100418.25;4917431;29;20040;-75
2023/12/02 00:41:49;;;;;;;65.30;28.52;;;;;;;-5.23;83.71;100416.34;4927665;28;20134;-77
2023/12/02 00:44:16;;;;;;;70.05;28.75;;;;;;;-5.19;83.68;100422.41;4935776;28;20047;-77
2023/12/02 00:46:42;;;;;;;69.80;30.33;;;;;;;-5.25;84.04;100420.81;4935201;28;20057;-77
2023/12/02 00:49:09;;;;;;;78.18;32.00;;;;;;;-5.30;84.06;100420.06;4935941;28;20078;-77
2023/12/02 00:51:37;;;;;;;75.95;30.92;;;;;;;-5.30;84.05;100425.34;4935220;28;20043;-77
2023/12/02 00:54:03;;;;;;;81.43;32.20;;;;;;;-5.25;84.00;100418.16;4925785;28;20044;-77
2023/12/02 00:56:32;;;;;;;73.63;30.13;;;;;;;-5.17;83.69;100426.75;4917000;29;20056;-77
2023/12/02 00:58:59;;;;;;;76.97;31.90;;;;;;;-5.30;84.04;100430.63;4917609;29;20052;-77
2023/12/02 01:01:25;;;;;;;71.63;29.38;;;;;;;-5.24;83.72;100425.19;4916347;29;20063;-76
2023/12/02 01:03:52;;;;;;;81.80;32.83;;;;;;;-5.22;83.72;100426.00;4918817;29;20497;-78
2023/12/02 01:06:18;;;;;;;71.60;30.23;;;;;;;-5.03;83.80;100418.41;4918162;29;20127;-77
2023/12/02 01:08:45;;;;;;;72.97;31.30;;;;;;;-5.06;83.02;100416.72;4931373;29;20501;-77
2023/12/02 01:11:11;;;;;;;77.47;30.33;;;;;;;-5.07;83.36;100422.06;4917164;29;20076;-77
2023/12/02 01:13:38;;;;;;;69.53;30.60;;;;;;;-5.12;83.79;100438.03;4917397;29;20044;-77
2023/12/02 01:16:05;;;;;;;73.45;30.10;;;;;;;-5.16;83.29;100439.06;4917900;29;20055;-77
2023/12/02 01:18:32;;;;;;;70.05;28.42;;;;;;;-5.20;82.64;100442.69;4916940;29;20052;-77
2023/12/02 01:20:59;;;;;;;73.15;31.38;;;;;;;-5.40;83.70;100447.66;4918161;29;20127;-77
2023/12/02 01:23:25;;;;;;;77.00;29.77;;;;;;;-5.51;84.16;100447.09;4916532;29;20056;-77
2023/12/02 01:25:53;;;;;;;71.40;29.55;;;;;;;-5.53;84.24;100449.78;4917139;29;20417;-77
2023/12/02 01:28:20;;;;;;;68.45;29.40;;;;;;;-5.34;84.41;100439.56;4917878;29;20075;-77
2023/12/02 01:30:46;;;;;;;73.07;29.98;;;;;;;-5.42;83.67;100441.56;4917131;29;20589;-77
2023/12/02 01:33:13;;;;;;;74.43;29.33;;;;;;;-5.54;84.14;100450.69;4917289;29;20124;-77
2023/12/02 01:35:39;;;;;;;72.60;31.08;;;;;;;-5.40;83.86;100458.22;4915825;29;20264;-77
2023/12/02 01:38:06;;;;;;;69.63;29.35;;;;;;;-5.61;84.23;100449.97;4917277;29;20465;-78
2023/12/02 01:40:32;;;;;;;69.97;29.15;;;;;;;-5.56;84.39;100443.69;4917536;29;20075;-78
2023/12/02 01:43:02;;;;;;;71.43;29.70;;;;;;;-5.40;83.52;100434.44;4916814;29;20047;-77
2023/12/02 01:45:30;;;;;;;66.32;28.35;;;;;;;-5.51;83.54;100440.03;4915954;29;20044;-77
2023/12/02 01:47:59;;;;;;;75.68;29.45;;;;;;;-5.47;84.02;100438.16;4916453;29;20621;-78
2023/12/02 01:50:26;;;;;;;71.32;28.13;;;;;;;-5.60;83.92;100435.00;4916315;29;20058;-77
2023/12/02 01:52:53;;;;;;;65.60;27.10;;;;;;;-5.46;83.60;100446.06;4918344;28;20107;-74
2023/12/02 01:55:19;;;;;;;59.53;25.63;;;;;;;-5.52;83.82;100448.00;4937020;28;20409;-76
2023/12/02 01:57:47;;;;;;;65.82;25.85;;;;;;;-5.07;83.32;100445.84;4935696;28;20055;-77
2023/12/02 02:00:14;;;;;;;57.63;25.50;;;;;;;-5.18;82.12;100453.25;4935643;28;20457;-77
2023/12/02 02:02:43;;;;;;;58.00;24.92;;;;;;;-5.46;83.25;100458.41;4934472;28;20056;-77
2023/12/02 02:08:57;;;;;;;54.78;24.27;;;;;;;-5.68;83.63;100460.75;4934163;28;20046;-76
2023/12/02 02:11:24;;;;;;;56.85;24.05;;;;;;;-5.56;82.77;100459.53;4933293;28;20052;-77
2023/12/02 02:13:51;;;;;;;57.88;24.60;;;;;;;-5.56;82.50;100464.81;4932572;28;20464;-77
2023/12/02 02:16:17;;;;;;;54.47;22.25;;;;;;;-5.40;82.63;100452.94;4932964;28;20071;-78
2023/12/02 02:18:44;;;;;;;49.38;21.58;;;;;;;-5.20;81.70;100453.25;4932541;28;20051;-77
2023/12/02 02:21:16;;;;;;;47.97;22.05;;;;;;;-5.49;82.06;100458.47;4932852;28;20058;-77
2023/12/02 02:23:42;;;;;;;51.65;22.40;;;;;;;-5.62;82.11;100466.75;4932571;28;20159;-77
2023/12/02 02:26:09;;;;;;;48.88;21.13;;;;;;;-5.48;80.89;100457.56;4933348;28;20052;-77
2023/12/02 02:28:35;;;;;;;46.67;20.90;;;;;;;-5.41;81.06;100449.44;4931971;28;20542;-77
2023/12/02 02:31:02;;;;;;;45.65;20.30;;;;;;;-5.48;81.27;100454.91;4933367;28;20055;-77
2023/12/02 02:33:31;;;;;;;46.65;21.55;;;;;;;-5.36;80.95;100454.63;4947698;28;20457;-77
2023/12/02 02:35:58;;;;;;;45.83;22.48;;;;;;;-5.77;81.91;100456.56;4933501;28;20051;-77
2023/12/02 02:38:25;;;;;;;47.80;20.42;;;;;;;-5.85;82.30;100447.97;4932406;28;20048;-75
2023/12/02 02:40:51;;;;;;;41.83;20.38;;;;;;;-5.61;82.18;100444.69;4933016;28;20047;-78
2023/12/02 02:43:18;;;;;;;49.97;19.08;;;;;;;-5.27;81.00;100441.16;4932972;28;20450;-78
2023/12/02 02:45:44;;;;;;;43.83;18.90;;;;;;;-5.57;81.45;100431.38;4931043;28;20049;-78
2023/12/02 02:48:11;;;;;;;44.03;19.08;;;;;;;-5.39;80.15;100430.88;4933574;28;20548;-77
2023/12/02 02:50:38;;;;;;;44.42;19.50;;;;;;;-5.75;80.75;100433.59;4932294;28;20154;-78
2023/12/02 02:53:05;;;;;;;43.85;20.30;;;;;;;-5.57;81.68;100432.25;4929955;28;20056;-76
2023/12/02 02:55:31;;;;;;;42.80;20.00;;;;;;;-5.69;81.48;100422.88;4912934;29;20048;-78
2023/12/02 02:57:58;;;;;;;42.15;19.02;;;;;;;-5.94;82.14;100419.16;4914092;29;20112;-78
2023/12/02 03:00:24;;;;;;;44.40;20.67;;;;;;;-5.74;81.39;100416.00;4914142;29;20051;-77
2023/12/02 03:02:51;;;;;;;45.58;20.73;;;;;;;-6.02;82.24;100429.94;4914238;29;20050;-77
2023/12/02 03:05:17;;;;;;;41.55;18.35;;;;;;;-6.03;82.51;100435.22;4913015;29;20240;-77
2023/12/02 03:07:44;;;;;;;46.30;19.33;;;;;;;-6.06;83.25;100448.50;4912800;29;20051;-77
2023/12/02 03:10:12;;;;;;;46.95;20.13;;;;;;;-6.29;83.70;100447.31;4913662;29;20059;-77
2023/12/02 03:12:39;;;;;;;52.10;21.90;;;;;;;-6.36;83.82;100444.84;4912557;29;20055;-76
2023/12/02 03:15:06;;;;;;;53.90;19.55;;;;;;;-6.31;84.19;100448.22;4912844;29;20473;-77
2023/12/02 03:17:33;;;;;;;47.78;19.42;;;;;;;-6.37;83.60;100443.09;4912993;29;20075;-78
2023/12/02 03:20:00;;;;;;;46.65;19.83;;;;;;;-6.32;84.14;100450.00;4913054;29;20051;-77
2023/12/02 03:22:27;;;;;;;45.63;18.88;;;;;;;-6.38;83.96;100455.44;4912089;29;20058;-77
2023/12/02 03:24:56;;;;;;;43.90;18.05;;;;;;;-6.41;84.23;100457.25;4913241;29;20080;-76
2023/12/02 03:27:22;;;;;;;41.05;17.15;;;;;;;-6.28;83.88;100458.72;4914280;29;20086;-76
2023/12/02 03:29:49;;;;;;;40.55;18.25;;;;;;;-5.94;83.46;100450.84;4912569;29;20054;-77
2023/12/02 03:32:15;;;;;;;48.40;18.88;;;;;;;-5.96;82.30;100464.06;4912624;29;20064;-77
2023/12/02 03:34:42;;;;;;;41.20;17.40;;;;;;;-5.73;82.24;100458.22;4914084;29;20060;-78
2023/12/02 03:37:10;;;;;;;42.75;18.30;;;;;;;-5.70;82.33;100458.13;4913120;29;20059;-78
2023/12/02 03:39:37;;;;;;;44.58;18.48;;;;;;;-5.90;82.15;100457.78;4912063;29;20493;-77
2023/12/02 03:42:04;;;;;;;48.92;20.95;;;;;;;-6.26;83.01;100465.69;4912586;29;20054;-78
2023/12/02 03:44:30;;;;;;;44.97;20.02;;;;;;;-6.29;83.70;100468.41;4926676;29;20052;-78
2023/12/02 03:46:59;;;;;;;50.25;20.33;;;;;;;-6.24;83.41;100461.25;4913182;29;20051;-78
2023/12/02 03:49:25;;;;;;;43.08;19.40;;;;;;;-6.13;82.36;100457.47;4911315;29;20405;-74
2023/12/02 03:51:52;;;;;;;44.30;19.58;;;;;;;-6.23;82.51;100455.06;4912957;29;20138;-78
2023/12/02 03:54:19;;;;;;;40.65;17.73;;;;;;;-6.30;82.23;100453.50;4925581;28;20094;-78
2023/12/02 03:56:45;;;;;;;41.13;17.70;;;;;;;-6.26;82.85;100456.91;4930941;28;20048;-78
2023/12/02 03:59:13;;;;;;;49.50;20.25;;;;;;;-6.35;83.20;100468.56;4932792;28;20047;-78
2023/12/02 04:01:39;;;;;;;45.95;18.77;;;;;;;-6.46;84.03;100475.84;4931538;28;20685;-78
2023/12/02 04:04:06;;;;;;;39.83;17.35;;;;;;;-6.46;83.58;100486.41;4932926;28;20102;-78
2023/12/02 04:06:33;;;;;;;42.25;17.15;;;;;;;-6.52;84.05;100486.53;4931801;28;20143;-78
2023/12/02 04:09:00;;;;;;;44.17;18.38;;;;;;;-6.35;83.75;100488.78;4932342;28;20044;-78
2023/12/02 04:11:26;;;;;;;46.20;18.13;;;;;;;-6.08;82.27;100482.00;4930993;28;20061;-77
2023/12/02 04:13:53;;;;;;;43.78;16.77;;;;;;;-6.01;82.58;100476.53;4933205;28;20500;-78
2023/12/02 04:16:19;;;;;;;49.30;18.73;;;;;;;-5.73;82.06;100467.94;4931552;28;20052;-78
2023/12/02 04:18:46;;;;;;;40.90;17.10;;;;;;;-6.01;81.10;100465.13;4932208;28;20063;-78
2023/12/02 04:21:13;;;;;;;45.38;17.38;;;;;;;-6.38;83.20;100457.22;4931933;28;20421;-78
2023/12/02 04:23:39;;;;;;;42.28;16.58;;;;;;;-6.34;82.80;100451.81;4932211;28;20071;-78
2023/12/02 04:26:09;;;;;;;42.17;16.90;;;;;;;-6.02;82.28;100444.91;4933599;28;20059;-78
2023/12/02 04:28:37;;;;;;;38.17;15.97;;;;;;;-5.99;81.40;100450.09;4932598;28;20103;-78
2023/12/02 04:31:04;;;;;;;42.35;16.65;;;;;;;-6.20;82.22;100467.34;4932375;28;20295;-78
2023/12/02 04:33:31;;;;;;;38.55;16.48;;;;;;;-6.02;81.93;100476.59;4930143;28;20047;-78
2023/12/02 04:35:58;;;;;;;41.88;16.85;;;;;;;-5.64;81.31;100459.78;4930854;28;20465;-78
2023/12/02 04:38:25;;;;;;;46.45;18.15;;;;;;;-5.88;80.84;100437.50;4932942;28;20478;-78
2023/12/02 04:40:51;;;;;;;38.67;16.13;;;;;;;-5.79;80.78;100439.88;4931882;28;20052;-78
2023/12/02 04:43:18;;;;;;;38.83;17.40;;;;;;;-6.15;81.82;100449.59;4932521;28;20133;-73
2023/12/02 04:45:44;;;;;;;40.05;16.77;;;;;;;-6.20;81.95;100451.50;4930837;28;20052;-72
2023/12/02 04:48:11;;;;;;;41.90;16.60;;;;;;;-6.12;82.45;100446.88;4945358;28;20043;-71
2023/12/02 04:50:38;;;;;;;36.33;16.23;;;;;;;-5.97;81.97;100443.00;4929540;28;20132;-71
2023/12/02 04:53:05;;;;;;;37.45;14.95;;;;;;;-6.11;81.50;100455.69;4928545;28;20115;-72
2023/12/02 04:55:31;;;;;;;32.63;13.88;;;;;;;-6.33;82.20;100455.31;4911003;29;20052;-71
2023/12/02 04:57:59;;;;;;;33.85;15.00;;;;;;;-6.37;82.60;100465.09;4913020;29;20100;-72
2023/12/02 05:00:25;;;;;;;33.15;13.45;;;;;;;-6.49;82.27;100474.16;4911093;29;20131;-73
2023/12/02 05:02:52;;;;;;;30.30;12.90;;;;;;;-6.25;82.47;100474.47;4913156;29;20052;-72
2023/12/02 05:05:19;;;;;;;29.25;12.95;;;;;;;-6.02;81.77;100479.22;4912543;29;20058;-72
2023/12/02 05:07:45;;;;;;;37.20;13.93;;;;;;;-6.18;80.47;100487.50;4912815;29;20135;-72
2023/12/02 05:10:12;;;;;;;33.50;15.68;;;;;;;-6.34;81.82;100491.38;4915215;29;20490;-72
2023/12/02 05:12:39;;;;;;;33.00;13.75;;;;;;;-6.26;81.99;100489.44;4912886;29;20056;-72
2023/12/02 05:15:06;;;;;;;33.92;14.38;;;;;;;-5.98;81.22;100489.66;4914718;29;20485;-73
2023/12/02 05:17:32;;;;;;;33.17;14.13;;;;;;;-5.78;81.07;100491.81;4915606;29;20055;-73
2023/12/02 05:19:59;;;;;;;41.28;15.68;;;;;;;-5.88;80.80;100501.72;4915336;29;20497;-72
2023/12/02 05:22:27;;;;;;;38.58;15.40;;;;;;;-6.01;80.49;100502.06;4914524;29;20052;-73
2023/12/02 05:24:54;;;;;;;35.53;14.95;;;;;;;-6.07;80.76;100504.84;4916153;29;20103;-72
2023/12/02 05:27:21;;;;;;;34.08;14.95;;;;;;;-6.05;80.17;100497.75;4914694;29;20048;-72
2023/12/02 05:29:47;;;;;;;36.13;15.30;;;;;;;-6.35;81.50;100505.50;4914101;29;20413;-72
2023/12/02 05:32:14;;;;;;;31.70;14.77;;;;;;;-6.46;82.25;100507.50;4915105;29;20056;-72
2023/12/02 05:34:40;;;;;;;31.63;14.35;;;;;;;-6.58;82.60;100513.06;4914777;29;20056;-72
2023/12/02 05:37:07;;;;;;;31.15;13.05;;;;;;;-6.52;82.02;100520.81;4915334;29;20501;-72
2023/12/02 05:39:35;;;;;;;32.38;13.10;;;;;;;-6.43;81.82;100519.75;4915001;29;20079;-72
2023/12/02 05:42:02;;;;;;;27.70;12.68;;;;;;;-6.54;82.54;100514.72;4915761;29;20044;-72
2023/12/02 05:44:28;;;;;;;29.67;12.32;;;;;;;-6.42;81.84;100525.00;4913232;29;20055;-72
2023/12/02 05:46:55;;;;;;;27.85;11.93;;;;;;;-6.62;82.61;100533.34;4929752;29;20048;-72
2023/12/02 05:49:21;;;;;;;24.73;11.82;;;;;;;-6.38;82.34;100536.38;4911373;29;20573;-72
2023/12/02 05:51:48;;;;;;;25.65;11.13;;;;;;;-6.11;81.71;100540.16;4914321;29;20131;-72
2023/12/02 05:54:15;;;;;;;31.58;12.35;;;;;;;-6.21;81.17;100535.09;4920355;28;20052;-72
2023/12/02 05:56:42;;;;;;;27.60;12.73;;;;;;;-6.61;82.53;100540.34;4914170;29;20079;-72
2023/12/02 05:59:09;;;;;;;28.58;11.90;;;;;;;-6.58;82.85;100540.31;4914275;29;20060;-72
2023/12/02 06:01:36;;;;;;;30.08;12.60;;;;;;;-6.69;83.00;100536.13;4913798;29;20052;-73
2023/12/02 06:04:03;;;;;;;29.73;12.98;;;;;;;-6.70;83.53;100532.63;4914557;29;20048;-73
2023/12/02 06:06:30;;;;;;;22.38;11.07;;;;;;;-6.70;83.33;100523.84;4914364;29;20052;-74
2023/12/02 06:08:56;;;;;;;26.63;11.50;;;;;;;-6.66;83.44;100528.19;4914467;29;20134;-73
2023/12/02 06:11:23;;;;;;;25.77;11.32;;;;;;;-6.61;83.12;100524.53;4929613;29;20044;-74
2023/12/02 06:13:50;;;;;;;28.42;11.45;;;;;;;-6.71;83.40;100528.25;4913611;29;20462;-73
2023/12/02 06:16:16;;;;;;;29.25;12.05;;;;;;;-6.76;83.74;100531.00;4914124;29;20519;-73
2023/12/02 06:18:44;;;;;;;30.60;12.70;;;;;;;-6.77;83.93;100533.66;4912800;29;20060;-73
2023/12/02 06:21:12;;;;;;;28.17;11.48;;;;;;;-6.76;83.46;100525.72;4913876;29;20083;-73
2023/12/02 06:23:38;;;;;;;27.75;12.02;;;;;;;-6.69;83.41;100530.84;4928007;29;20056;-73
2023/12/02 06:26:08;;;;;;;27.15;11.73;;;;;;;-6.58;82.56;100520.97;4914192;29;20048;-74
2023/12/02 06:28:34;;;;;;;25.50;11.23;;;;;;;-6.59;82.84;100519.22;4928499;29;20444;-74
2023/12/02 06:31:01;;;;;;;25.15;10.93;;;;;;;-6.51;82.29;100526.06;4913989;29;20442;-74
2023/12/02 06:33:27;;;;;;;21.48;10.38;;;;;;;-6.65;82.61;100514.09;4913282;29;20100;-74
2023/12/02 06:35:54;;;;;;;22.60;10.25;;;;;;;-6.64;82.92;100518.47;4914893;29;20475;-74
2023/12/02 06:38:22;;;;;;;19.42;8.70;;;;;;;-6.62;83.61;100524.56;4925794;28;20051;-73
2023/12/02 06:40:49;;;;;;;20.05;8.77;;;;;;;-6.58;82.33;100524.47;4933111;28;20075;-74
2023/12/02 06:43:15;;;;;;;17.90;8.02;;;;;;;-6.60;82.69;100525.38;4933879;28;20130;-74
2023/12/02 06:45:42;;;;;;;21.17;8.90;;;;;;;-6.62;83.53;100530.69;4932313;28;20110;-74
2023/12/02 06:48:09;;;;;;;19.63;8.50;;;;;;;-6.50;83.64;100537.47;4930901;28;20043;-73
2023/12/02 06:50:35;;;;;;;14.27;7.47;;;;;;;-6.55;83.13;100537.59;4932028;28;20500;-74
2023/12/02 06:53:02;;;;;;;19.27;8.63;;;;;;;-6.38;83.07;100534.59;4944591;28;20501;-73
2023/12/02 06:55:31;;;;;;;20.13;8.95;;;;;;;-6.41;82.82;100544.31;4912944;29;20056;-74
2023/12/02 06:57:59;;;;;;;19.65;9.57;;;;;;;-6.36;82.90;100543.34;4913222;29;20056;-74
2023/12/02 07:00:25;;;;;;;19.05;8.45;;;;;;;-6.26;82.92;100542.22;4913914;29;20602;-74
2023/12/02 07:02:52;;;;;;;18.58;8.82;;;;;;;-6.17;82.40;100539.38;4913661;29;20076;-74
2023/12/02 07:05:19;;;;;;;22.25;9.52;;;;;;;-6.31;82.97;100544.09;4913653;29;20441;-74
2023/12/02 07:07:45;;;;;;;20.30;8.95;;;;;;;-6.28;83.00;100546.69;4927726;29;20401;-74
2023/12/02 07:10:13;;;;;;;20.33;9.68;;;;;;;-6.20;82.63;100547.38;4913682;29;20044;-73
2023/12/02 07:12:39;;;;;;;29.30;12.93;;;;;;;-6.20;83.13;100552.66;4913693;29;20520;-74
2023/12/02 07:15:07;;;;;;;24.90;10.82;;;;;;;-6.13;82.92;100549.88;4914313;29;20048;-74
2023/12/02 07:17:34;;;;;;;19.90;9.05;;;;;;;-6.19;83.03;100558.81;4913518;29;20489;-74
2023/12/02 07:20:00;;;;;;;21.83;9.18;;;;;;;-5.87;83.22;100555.41;4912598;29;20527;-74
2023/12/02 07:22:27;;;;;;;20.33;9.20;;;;;;;-5.78;82.09;100560.47;4912606;29;20055;-74
2023/12/02 07:24:54;;;;;;;21.25;9.05;;;;;;;-5.63;82.13;100570.69;4913998;29;20099;-74
2023/12/02 07:27:20;;;;;;;17.90;8.45;;;;;;;-5.71;81.47;100571.78;4912938;29;20927;-74
2023/12/02 07:29:47;;;;;;;18.77;8.80;;;;;;;-5.81;82.10;100576.41;4912580;29;20047;-73
2023/12/02 07:32:17;;;;;;;20.73;7.88;;;;;;;-5.65;82.54;100580.44;4912827;29;20099;-74
2023/12/02 07:34:43;;;;;;;18.42;8.63;;;;;;;-5.64;82.00;100582.16;4912532;29;20418;-74
2023/12/02 07:37:10;;;;;;;20.30;9.02;;;;;;;-5.70;82.53;100579.66;4913286;29;20054;-74
2023/12/02 07:39:37;;;;;;;20.08;9.10;;;;;;;-5.52;81.79;100590.69;4912336;29;20048;-74
2023/12/02 07:42:04;;;;;;;20.52;9.05;;;;;;;-5.56;81.83;100583.72;4913874;29;20048;-73
2023/12/02 07:44:30;;;;;;;20.63;8.52;;;;;;;-5.39;81.52;100579.75;4914992;29;20112;-73
2023/12/02 07:46:57;;;;;;;21.02;9.18;;;;;;;-5.46;81.79;100583.47;4929488;29;20107;-73
2023/12/02 07:49:24;;;;;;;19.45;9.23;;;;;;;-5.44;81.80;100583.44;4914137;29;20126;-73
2023/12/02 07:51:50;;;;;;;20.88;9.48;;;;;;;-5.51;81.90;100587.13;4927400;29;20054;-72
2023/12/02 07:54:17;;;;;;;24.45;9.77;;;;;;;-5.56;82.61;100586.34;4926200;28;20043;-73
2023/12/02 07:56:44;;;;;;;26.00;10.38;;;;;;;-5.38;82.65;100580.63;4933199;28;20119;-73
2023/12/02 07:59:12;;;;;;;25.65;10.45;;;;;;;-5.40;82.18;100578.03;4932605;28;20062;-73
2023/12/02 08:01:39;;;;;;;26.08;11.50;;;;;;;-5.44;82.52;100586.09;4933020;28;20099;-73
2023/12/02 08:04:06;;;;;;;24.20;11.13;;;;;;;-5.06;81.60;100574.50;4933614;28;20048;-73
2023/12/02 08:06:33;;;;;;;24.42;10.55;;;;;;;-4.70;81.27;100580.59;4932616;28;20559;-73
2023/12/02 08:08:59;;;;;;;31.25;13.05;;;;;;;-4.72;80.17;100571.81;4933318;28;20048;-75
2023/12/02 08:11:26;;;;;;;29.73;12.00;;;;;;;-4.65;79.96;100573.38;4933322;28;20115;-76
2023/12/02 08:13:53;;;;;;;29.83;12.70;;;;;;;-4.67;80.61;100579.63;4934454;28;20469;-74
2023/12/02 08:16:20;;;;;;;26.10;11.82;;;;;;;-4.50;79.97;100583.53;4933874;28;20481;-74
2023/12/02 08:18:46;;;;;;;28.70;12.02;;;;;;;-4.50;79.42;100580.00;4933589;28;20517;-74
2023/12/02 08:21:13;;;;;;;30.55;12.55;;;;;;;-4.34;79.58;100588.38;4933691;28;20048;-74
2023/12/02 08:23:40;;;;;;;31.50;11.90;;;;;;;-4.22;79.05;100585.38;4933143;28;20044;-74
2023/12/02 08:26:07;;;;;;;34.05;13.55;;;;;;;-4.21;79.02;100595.03;4934158;28;20107;-74
2023/12/02 08:28:34;;;;;;;29.90;11.88;;;;;;;-4.38;79.29;100592.88;4933772;28;20059;-74
2023/12/02 08:31:00;;;;;;;37.45;13.52;;;;;;;-4.62;80.18;100601.53;4934319;28;20047;-75
2023/12/02 08:33:27;;;;;;;31.42;13.63;;;;;;;-4.62;80.39;100604.19;4934088;28;20048;-75
2023/12/02 08:35:53;;;;;;;29.48;12.77;;;;;;;-4.56;80.52;100604.00;4934674;28;20126;-74
2023/12/02 08:38:20;;;;;;;33.25;13.52;;;;;;;-4.41;80.19;100602.72;4933763;28;20407;-74
2023/12/02 08:40:49;;;;;;;34.67;14.60;;;;;;;-4.31;79.83;100604.19;4933759;28;20060;-73
2023/12/02 08:43:15;;;;;;;32.28;15.07;;;;;;;-4.53;80.57;100607.44;4947787;28;20405;-73
2023/12/02 08:45:42;;;;;;;29.17;12.60;;;;;;;-4.49;81.25;100606.44;4937265;28;20421;-75
2023/12/02 08:48:09;;;;;;;33.00;13.65;;;;;;;-4.30;79.94;100604.13;4937409;28;20059;-75
2023/12/02 08:50:35;;;;;;;32.67;12.80;;;;;;;-4.12;80.02;100610.66;4936794;28;20058;-74
2023/12/02 08:53:03;;;;;;;36.63;14.18;;;;;;;-4.39;80.63;100608.81;4935162;28;20055;-74
2023/12/02 08:55:29;;;;;;;35.90;14.77;;;;;;;-4.34;81.03;100599.84;4918259;29;20496;-75
2023/12/02 08:57:56;;;;;;;39.03;15.85;;;;;;;-4.57;81.50;100616.38;4918896;29;20058;-74
2023/12/02 09:00:22;;;;;;;35.00;13.98;;;;;;;-4.42;81.63;100619.50;4918235;29;20044;-75
2023/12/02 09:02:50;;;;;;;38.53;14.20;;;;;;;-4.38;81.37;100629.09;4918384;29;20048;-74
2023/12/02 09:05:16;;;;;;;36.10;14.38;;;;;;;-4.32;80.97;100627.13;4919515;29;20493;-77
2023/12/02 09:07:43;;;;;;;37.83;14.93;;;;;;;-4.12;80.91;100621.25;4933514;29;20070;-77
2023/12/02 09:10:10;;;;;;;35.95;14.88;;;;;;;-4.33;81.38;100613.94;4918349;29;20048;-77
2023/12/02 09:12:38;;;;;;;35.88;13.93;;;;;;;-4.10;80.85;100603.53;4932538;29;20488;-77
2023/12/02 09:15:28;;;;;;;38.28;14.73;;;;;;;-4.17;80.95;100601.97;4918668;29;20111;-77
2023/12/02 09:18:12;;;;;;;37.10;15.45;;;;;;;-3.98;80.00;100612.88;4918536;29;20394;-77
2023/12/02 09:20:50;;;;;;;38.20;15.43;;;;;;;-3.93;80.52;100611.84;4917941;29;20040;-77
2023/12/02 09:23:18;;;;;;;46.35;18.83;;;;;;;-3.93;80.21;100603.88;4917178;29;20052;-76
2023/12/02 09:25:45;;;;;;;49.33;20.73;;;;;;;-3.68;79.46;100595.19;4917503;29;20056;-76
2023/12/02 09:28:15;;;;;;;34.67;15.27;;;;;;;-3.71;79.23;100596.13;4917077;29;20449;-76
2023/12/02 09:30:55;;;;;;;36.08;15.60;;;;;;;-3.67;79.54;100607.50;4918161;29;20048;-76
2023/12/02 09:33:35;;;;;;;34.42;15.05;;;;;;;-3.62;79.11;100602.91;4917494;29;20095;-76
2023/12/02 09:36:03;;;;;;;32.92;14.38;;;;;;;-3.60;79.63;100603.75;4917606;29;20048;-76
2023/12/02 09:38:32;;;;;;;35.78;15.68;;;;;;;-3.66;79.19;100610.13;4917082;29;20059;-76
2023/12/02 09:41:02;;;;;;;33.05;14.57;;;;;;;-3.59;79.11;100610.78;4917670;29;20044;-76
2023/12/02 09:43:53;;;;;;;27.75;13.05;;;;;;;-3.47;78.67;100605.09;4917335;29;20076;-76
2023/12/02 09:46:32;;;;;;;36.72;14.63;;;;;;;-3.59;79.16;100618.75;4917106;29;20489;-76
2023/12/02 09:49:21;;;;;;;37.78;13.85;;;;;;;-3.62;79.55;100624.13;4930600;29;20048;-76
2023/12/02 09:52:17;;;;;;;35.08;13.57;;;;;;;-3.39;78.53;100621.63;4917109;29;20048;-77
2023/12/02 09:54:58;;;;;;;36.72;14.55;;;;;;;-3.26;78.65;100621.22;4932050;28;20048;-76
2023/12/02 09:57:39;;;;;;;34.75;14.85;;;;;;;-3.34;78.92;100617.00;4924327;28;20182;-77
2023/12/02 10:00:12;;;;;;;34.33;14.60;;;;;;;-3.23;79.42;100623.75;4919499;29;20052;-77
2023/12/02 10:02:45;;;;;;;32.72;13.77;;;;;;;-3.26;78.87;100623.84;4917242;29;20059;-76
2023/12/02 10:05:15;;;;;;;36.30;15.05;;;;;;;-3.00;78.07;100631.81;4928578;29;20044;-76
2023/12/02 10:08:07;;;;;;;34.72;15.15;;;;;;;-3.19;79.01;100630.69;4917159;29;20056;-77
2023/12/02 10:10:52;;;;;;;31.40;13.90;;;;;;;-3.02;78.39;100628.34;4920404;28;20059;-76
2023/12/02 10:13:36;;;;;;;34.30;13.90;;;;;;;-2.99;77.53;100620.28;4916560;29;20378;-76
2023/12/02 10:16:10;;;;;;;32.03;13.35;;;;;;;-3.23;78.95;100618.44;4916933;29;20123;-77
2023/12/02 10:18:38;;;;;;;34.85;14.25;;;;;;;-3.09;78.68;100622.38;4918994;29;20423;-75
2023/12/02 10:21:11;;;;;;;28.70;12.73;;;;;;;-3.01;78.75;100622.13;4917345;29;20048;-76
2023/12/02 10:23:46;;;;;;;31.13;13.07;;;;;;;-3.07;78.54;100614.38;4916049;29;20048;-77
2023/12/02 10:26:17;;;;;;;29.15;14.02;;;;;;;-3.01;78.57;100617.69;4916175;29;20075;-77
2023/12/02 10:28:59;;;;;;;35.33;14.07;;;;;;;-2.92;78.23;100613.00;4916015;29;20048;-76
2023/12/02 10:31:31;;;;;;;25.27;11.73;;;;;;;-3.15;78.34;100608.44;4915462;29;20413;-77
2023/12/02 10:34:03;;;;;;;32.42;17.02;;;;;;;-3.16;78.67;100606.72;4914566;28;20517;-76
2023/12/02 10:36:33;;;;;;;51.13;24.17;;;;;;;-3.08;78.51;100609.97;4911914;29;20040;-77
2023/12/02 10:39:13;;;;;;;36.15;16.80;;;;;;;-3.04;78.53;100603.66;4931256;29;20048;-78
2023/12/02 10:41:57;;;;;;;41.65;14.32;;;;;;;-2.81;78.26;100606.38;4916427;29;20444;-77
2023/12/02 10:44:24;;;;;;;34.45;13.32;;;;;;;-2.80;78.10;100597.50;4913851;29;20052;-76
2023/12/02 10:46:53;;;;;;;31.48;13.40;;;;;;;-2.77;77.53;100605.38;4916830;29;20052;-78
2023/12/02 10:49:21;;;;;;;33.40;14.77;;;;;;;-2.86;77.33;100597.72;4916982;29;20158;-77
2023/12/02 10:51:50;;;;;;;33.50;14.45;;;;;;;-2.88;78.03;100596.03;4917093;29;20052;-77
2023/12/02 10:54:41;;;;;;;29.85;13.60;;;;;;;-2.88;77.81;100599.53;4914749;29;20050;-77
2023/12/02 10:57:08;;;;;;;32.03;13.18;;;;;;;-2.70;78.08;100594.50;4917271;29;20044;-77
2023/12/02 10:59:45;;;;;;;26.25;12.50;;;;;;;-2.77;77.61;100599.16;4915945;29;20079;-77
2023/12/02 11:02:35;;;;;;;25.33;12.13;;;;;;;-2.94;77.74;100591.81;4916659;29;20044;-77
2023/12/02 11:05:22;;;;;;;27.23;11.50;;;;;;;-3.24;78.18;100601.66;4917943;29;20469;-78
2023/12/02 11:07:53;;;;;;;22.02;10.75;;;;;;;-3.27;79.43;100598.25;4915631;29;20412;-76
2023/12/02 11:10:42;;;;;;;27.65;11.82;;;;;;;-3.19;79.07;100598.88;4915495;29;20052;-77
2023/12/02 11:13:15;;;;;;;27.48;11.35;;;;;;;-3.15;79.03;100595.19;4896318;29;20045;-75
2023/12/02 11:16:20;;;;;;;25.63;11.50;;;;;;;-3.43;79.73;100601.41;4896871;29;20052;-75
2023/12/02 11:19:18;;;;;;;23.98;10.88;;;;;;;-3.12;79.99;100592.44;4914518;29;20056;-78